createdAt,value
2022-11-12T00:00:17.822Z,45.30
2022-11-12T00:01:40.901Z,45.30
2022-11-12T00:03:01.747Z,54.00
2022-11-12T00:04:22.447Z,54.60
2022-11-12T00:05:45.245Z,52.20
2022-11-12T00:07:11.134Z,55.10
2022-11-12T00:08:32.750Z,37.50
2022-11-12T00:09:53.427Z,52.90
2022-11-12T00:11:13.980Z,47.20
2022-11-12T00:12:37.540Z,51.50
2022-11-12T00:13:58.785Z,48.60
2022-11-12T00:15:19.871Z,51.80
2022-11-12T00:16:40.334Z,48.90
2022-11-12T00:18:01.138Z,55.70
2022-11-12T00:19:21.451Z,52.80
2022-11-12T00:20:42.198Z,35.30
2022-11-12T00:22:02.772Z,55.00
2022-11-12T00:23:23.289Z,59.00
2022-11-12T00:24:43.786Z,53.70
2022-11-12T00:26:04.944Z,52.40
2022-11-12T00:27:26.047Z,56.50
2022-11-12T00:28:47.288Z,52.80
2022-11-12T00:30:12.700Z,48.30
2022-11-12T00:31:34.197Z,57.45
2022-11-12T00:32:54.540Z,58.20
2022-11-12T00:34:15.334Z,28.50
2022-11-12T00:35:36.153Z,50.40
2022-11-12T00:36:56.774Z,48.90
2022-11-12T00:38:16.936Z,32.50
2022-11-12T00:39:39.464Z,50.00
2022-11-12T00:41:00.476Z,54.70
2022-11-12T00:42:20.890Z,54.90
2022-11-12T00:43:41.441Z,61.40
2022-11-12T00:45:02.203Z,56.10
2022-11-12T00:46:22.872Z,55.30
2022-11-12T00:47:43.414Z,56.20
2022-11-12T00:49:03.975Z,60.00
2022-11-12T00:50:27.104Z,53.30
2022-11-12T00:51:47.972Z,43.70
2022-11-12T00:53:08.589Z,44.70
2022-11-12T00:54:29.260Z,48.90
2022-11-12T00:55:50.471Z,50.60
2022-11-12T00:57:10.908Z,42.50
2022-11-12T00:58:34.499Z,38.20
2022-11-12T00:59:55.068Z,44.60
2022-11-12T01:01:16.253Z,46.00
2022-11-12T01:02:42.474Z,47.00
2022-11-12T01:04:00.219Z,52.90
2022-11-12T01:05:21.295Z,35.40
2022-11-12T01:06:42.177Z,37.70
2022-11-12T01:08:02.976Z,47.40
2022-11-12T01:09:23.539Z,42.30
2022-11-12T01:10:43.953Z,50.40
2022-11-12T01:12:04.734Z,45.80
2022-11-12T01:13:25.450Z,41.80
2022-11-12T01:14:46.083Z,45.50
2022-11-12T01:17:18.731Z,49.40
2022-11-12T01:18:39.646Z,45.20
2022-11-12T01:20:00.128Z,45.10
2022-11-12T01:21:22.984Z,44.50
2022-11-12T01:22:43.510Z,49.50
2022-11-12T01:24:04.665Z,40.40
2022-11-12T01:25:25.136Z,46.90
2022-11-12T01:26:47.174Z,41.90
2022-11-12T01:28:07.530Z,45.50
2022-11-12T01:29:28.023Z,41.00
2022-11-12T01:30:48.602Z,44.70
2022-11-12T01:32:09.447Z,47.50
2022-11-12T01:33:30.057Z,47.30
2022-11-12T01:34:50.750Z,39.40
2022-11-12T01:36:14.568Z,44.00
2022-11-12T01:37:34.997Z,41.90
2022-11-12T01:38:55.852Z,46.80
2022-11-12T01:40:17.813Z,39.30
2022-11-12T01:41:40.386Z,41.10
2022-11-12T01:43:00.777Z,43.90
2022-11-12T01:44:24.680Z,43.80
2022-11-12T01:45:48.155Z,38.60
2022-11-12T01:47:30.200Z,39.70
2022-11-12T01:48:56.913Z,44.20
2022-11-12T01:50:29.798Z,46.10
2022-11-12T01:51:53.869Z,44.20
2022-11-12T01:53:14.536Z,40.40
2022-11-12T01:54:35.708Z,38.70
2022-11-12T01:55:58.171Z,38.20
2022-11-12T01:57:22.648Z,38.80
2022-11-12T01:58:46.029Z,41.70
2022-11-12T02:00:11.583Z,43.90
2022-11-12T02:01:32.671Z,36.00
2022-11-12T02:02:57.471Z,40.70
2022-11-12T02:04:19.226Z,36.80
2022-11-12T02:05:41.646Z,26.60
2022-11-12T02:07:02.955Z,44.40
2022-11-12T02:08:26.598Z,45.40
2022-11-12T02:09:47.190Z,42.30
2022-11-12T02:11:16.714Z,36.00
2022-11-12T02:12:38.011Z,40.30
2022-11-12T02:13:58.634Z,40.50
2022-11-12T02:15:18.908Z,45.30
2022-11-12T02:16:42.502Z,41.70
2022-11-12T02:18:04.172Z,44.80
2022-11-12T02:19:24.641Z,39.50
2022-11-12T02:20:46.860Z,41.20
2022-11-12T02:22:06.951Z,44.50
2022-11-12T02:23:27.425Z,24.90
2022-11-12T02:24:48.031Z,39.70
2022-11-12T02:26:09.071Z,36.30
2022-11-12T02:27:29.791Z,37.60
2022-11-12T02:28:50.979Z,33.20
2022-11-12T02:30:12.525Z,38.00
2022-11-12T02:31:33.148Z,43.90
2022-11-12T02:32:53.727Z,41.90
2022-11-12T02:34:14.289Z,47.10
2022-11-12T02:35:36.489Z,41.10
2022-11-12T02:36:59.371Z,39.30
2022-11-12T02:38:19.998Z,39.90
2022-11-12T02:39:40.250Z,37.00
2022-11-12T02:41:00.731Z,44.20
2022-11-12T02:42:20.957Z,39.70
2022-11-12T02:43:41.461Z,37.20
2022-11-12T02:45:01.986Z,30.20
2022-11-12T02:47:52.965Z,43.00
2022-11-12T02:49:13.913Z,42.20
2022-11-12T02:50:36.299Z,41.80
2022-11-12T02:51:56.893Z,43.00
2022-11-12T02:53:17.299Z,41.70
2022-11-12T02:54:37.807Z,41.00
2022-11-12T02:55:59.613Z,41.30
2022-11-12T02:57:19.966Z,39.40
2022-11-12T02:58:40.748Z,44.70
2022-11-12T03:00:03.589Z,34.60
2022-11-12T03:01:24.125Z,40.70
2022-11-12T03:02:44.796Z,40.00
2022-11-12T03:04:05.317Z,45.40
2022-11-12T03:05:28.376Z,47.10
2022-11-12T03:06:48.523Z,33.10
2022-11-12T03:08:09.373Z,32.90
2022-11-12T03:09:29.786Z,35.70
2022-11-12T03:10:50.892Z,35.70
2022-11-12T03:12:11.150Z,36.30
2022-11-12T03:13:31.437Z,32.10
2022-11-12T03:14:51.994Z,44.00
2022-11-12T03:16:13.056Z,37.90
2022-11-12T03:17:34.198Z,37.80
2022-11-12T03:18:56.080Z,34.80
2022-11-12T03:20:17.013Z,40.50
2022-11-12T03:21:37.790Z,40.70
2022-11-12T03:23:03.464Z,32.50
2022-11-12T03:24:24.713Z,35.70
2022-11-12T03:25:46.242Z,21.70
2022-11-12T03:27:06.707Z,40.70
2022-11-12T03:28:28.090Z,32.40
2022-11-12T03:29:48.735Z,29.60
2022-11-12T03:31:09.166Z,39.20
2022-11-12T03:32:29.838Z,33.80
2022-11-12T03:33:50.922Z,43.10
2022-11-12T03:35:19.361Z,37.40
2022-11-12T03:36:40.425Z,38.00
2022-11-12T03:38:01.682Z,37.90
2022-11-12T03:39:22.709Z,38.40
2022-11-12T03:40:43.458Z,33.00
2022-11-12T03:42:07.512Z,39.90
2022-11-12T03:43:28.732Z,40.00
2022-11-12T03:44:49.422Z,35.10
2022-11-12T03:46:13.278Z,36.60
2022-11-12T03:47:34.528Z,39.20
2022-11-12T03:48:55.210Z,30.80
2022-11-12T03:50:18.982Z,42.20
2022-11-12T03:51:41.595Z,36.50
2022-11-12T03:53:03.326Z,33.90
2022-11-12T03:54:24.607Z,22.50
2022-11-12T03:55:44.897Z,37.10
2022-11-12T03:57:09.104Z,37.40
2022-11-12T03:58:29.793Z,35.10
2022-11-12T03:59:50.091Z,29.40
2022-11-12T04:01:10.762Z,35.60
2022-11-12T04:02:32.462Z,34.80
2022-11-12T04:03:52.562Z,36.20
2022-11-12T04:05:15.103Z,30.20
2022-11-12T04:06:35.574Z,30.10
2022-11-12T04:08:00.387Z,40.00
2022-11-12T04:09:21.757Z,28.40
2022-11-12T04:10:44.132Z,33.00
2022-11-12T04:12:04.716Z,35.80
2022-11-12T04:13:25.535Z,36.00
2022-11-12T04:14:47.065Z,28.90
2022-11-12T04:16:19.457Z,30.90
2022-11-12T04:17:42.438Z,22.70
2022-11-12T04:19:08.782Z,36.00
2022-11-12T04:20:29.616Z,30.60
2022-11-12T04:21:57.617Z,22.70
2022-11-12T04:23:18.046Z,30.40
2022-11-12T04:24:40.543Z,31.50
2022-11-12T04:26:00.909Z,36.40
2022-11-12T04:27:27.293Z,28.30
2022-11-12T04:28:47.568Z,43.70
2022-11-12T04:30:09.444Z,34.70
2022-11-12T04:31:30.426Z,34.50
2022-11-12T04:32:53.830Z,34.50
2022-11-12T04:34:14.496Z,33.00
2022-11-12T04:35:35.320Z,34.10
2022-11-12T04:36:56.638Z,34.80
2022-11-12T04:38:19.996Z,33.70
2022-11-12T04:39:41.366Z,25.80
2022-11-12T04:41:05.287Z,30.60
2022-11-12T04:42:28.224Z,29.70
2022-11-12T04:43:48.864Z,31.90
2022-11-12T04:45:10.530Z,28.20
2022-11-12T04:46:30.610Z,30.00
2022-11-12T04:47:51.337Z,31.90
2022-11-12T04:49:15.651Z,34.60
2022-11-12T04:50:37.894Z,31.90
2022-11-12T04:51:59.313Z,36.40
2022-11-12T04:53:20.584Z,37.50
2022-11-12T04:54:40.871Z,28.00
2022-11-12T04:56:01.358Z,33.70
2022-11-12T04:57:23.194Z,33.10
2022-11-12T04:58:45.334Z,36.00
2022-11-12T05:00:07.466Z,21.20
2022-11-12T05:01:27.898Z,24.10
2022-11-12T05:02:51.320Z,32.10
2022-11-12T05:04:11.577Z,28.00
2022-11-12T05:05:34.122Z,32.50
2022-11-12T05:06:58.166Z,33.00
2022-11-12T05:08:19.579Z,22.20
2022-11-12T05:09:40.647Z,33.30
2022-11-12T05:11:00.806Z,32.90
2022-11-12T05:12:21.523Z,32.40
2022-11-12T05:13:42.036Z,30.40
2022-11-12T05:15:03.754Z,32.00
2022-11-12T05:16:24.245Z,35.40
2022-11-12T05:17:45.014Z,27.10
2022-11-12T05:19:07.264Z,29.80
2022-11-12T05:20:28.120Z,30.20
2022-11-12T05:21:48.396Z,34.10
2022-11-12T05:23:08.962Z,26.30
2022-11-12T05:24:41.711Z,32.40
2022-11-12T05:25:52.761Z,28.30
2022-11-12T05:27:16.035Z,23.30
2022-11-12T05:28:36.575Z,34.20
2022-11-12T05:29:56.905Z,28.50
2022-11-12T05:31:17.778Z,33.30
2022-11-12T05:32:37.962Z,21.40
2022-11-12T05:33:59.194Z,29.60
2022-11-12T05:35:19.367Z,32.50
2022-11-12T05:36:40.027Z,34.70
2022-11-12T05:38:00.311Z,35.50
2022-11-12T05:39:20.842Z,33.20
2022-11-12T05:40:44.052Z,31.70
2022-11-12T05:42:13.870Z,30.90
2022-11-12T05:43:27.753Z,30.90
2022-11-12T05:44:48.591Z,30.60
2022-11-12T05:46:14.060Z,26.60
2022-11-12T05:47:41.052Z,36.20
2022-11-12T05:49:04.951Z,37.30
2022-11-12T05:50:34.911Z,33.80
2022-11-12T05:51:54.986Z,33.30
2022-11-12T05:53:17.871Z,35.60
2022-11-12T05:54:40.875Z,32.10
2022-11-12T05:56:04.326Z,33.60
2022-11-12T05:57:27.098Z,30.10
2022-11-12T05:58:47.538Z,27.80
2022-11-12T06:00:10.945Z,32.60
2022-11-12T06:01:35.376Z,34.00
2022-11-12T06:02:59.321Z,35.90
2022-11-12T06:04:20.441Z,30.90
2022-11-12T06:05:41.053Z,35.90
2022-11-12T06:07:07.582Z,33.30
2022-11-12T06:08:34.040Z,51.20
2022-11-12T06:09:56.359Z,52.40
2022-11-12T06:11:18.028Z,52.90
2022-11-12T06:12:38.579Z,46.10
2022-11-12T06:13:59.550Z,50.00
2022-11-12T06:15:20.810Z,50.80
2022-11-12T06:16:42.002Z,41.10
2022-11-12T06:18:02.933Z,47.50
2022-11-12T06:19:23.758Z,36.70
2022-11-12T06:20:44.447Z,38.40
2022-11-12T06:22:05.761Z,31.40
2022-11-12T06:23:26.521Z,32.20
2022-11-12T06:24:47.627Z,36.80
2022-11-12T06:26:11.598Z,34.10
2022-11-12T06:27:32.526Z,36.00
2022-11-12T06:28:53.697Z,40.20
2022-11-12T06:30:14.679Z,33.70
2022-11-12T06:31:36.076Z,34.80
2022-11-12T06:32:57.055Z,41.10
2022-11-12T10:28:05.019Z,28.50
2022-11-12T10:31:05.866Z,35.80
2022-11-12T10:36:33.954Z,29.80
2022-11-12T10:38:03.713Z,29.30
2022-11-12T10:39:39.975Z,28.00
2022-11-12T10:41:08.158Z,33.70
2022-11-12T10:42:26.626Z,32.40
2022-11-12T10:44:04.446Z,27.20
2022-11-12T10:45:26.123Z,31.10
2022-11-12T10:46:46.767Z,18.40
2022-11-12T10:48:27.031Z,31.50
2022-11-12T10:50:05.384Z,27.70
2022-11-12T10:51:35.435Z,27.00
2022-11-12T10:53:02.357Z,28.00
2022-11-12T10:54:31.757Z,19.00
2022-11-12T10:57:23.244Z,25.70
2022-11-12T10:58:43.511Z,25.80
2022-11-12T11:00:13.545Z,19.40
2022-11-12T11:01:35.937Z,21.60
2022-11-12T11:02:58.853Z,26.10
2022-11-12T11:04:28.989Z,27.70
2022-11-12T11:06:08.498Z,32.30
2022-11-12T11:07:29.124Z,22.20
2022-11-12T11:08:52.276Z,27.60
2022-11-12T11:10:25.628Z,26.10
2022-11-12T11:11:53.628Z,27.00
2022-11-12T11:13:23.914Z,25.10
2022-11-12T11:14:44.298Z,23.50
2022-11-12T11:16:08.852Z,18.90
2022-11-12T11:17:29.723Z,22.00
2022-11-12T11:18:54.162Z,31.10
2022-11-12T11:20:30.516Z,17.10
2022-11-12T11:21:54.344Z,30.60
2022-11-12T11:23:25.190Z,22.30
2022-11-12T11:25:02.280Z,22.90
2022-11-12T11:26:47.328Z,24.40
2022-11-12T11:28:27.156Z,24.80
2022-11-12T11:29:57.582Z,27.30
2022-11-12T11:31:30.451Z,25.00
2022-11-12T11:33:03.443Z,14.20
2022-11-12T11:36:05.154Z,19.10
2022-11-12T11:37:28.907Z,19.80
2022-11-12T11:39:05.137Z,11.40
2022-11-12T11:40:29.265Z,19.20
2022-11-12T11:42:11.549Z,19.80
2022-11-12T11:44:13.788Z,20.10
2022-11-12T11:45:46.982Z,26.20
2022-11-12T11:47:44.147Z,27.80
2022-11-12T11:49:02.669Z,24.20
2022-11-12T11:52:44.054Z,26.40
2022-11-12T11:54:33.656Z,28.60
2022-11-12T11:56:03.578Z,39.60
2022-11-12T11:57:38.948Z,32.00
2022-11-12T11:59:09.217Z,35.10
2022-11-12T12:00:51.674Z,21.00
2022-11-12T12:02:32.643Z,25.70
2022-11-12T12:03:59.644Z,26.90
2022-11-12T12:05:43.301Z,25.80
2022-11-12T12:07:07.468Z,34.40
2022-11-12T12:08:37.530Z,26.10
2022-11-12T12:10:09.342Z,26.10
2022-11-12T12:11:39.945Z,24.10
2022-11-12T12:13:04.174Z,26.20
2022-11-12T12:14:45.292Z,27.20
2022-11-12T12:16:21.623Z,29.60
2022-11-12T12:17:48.158Z,21.40
2022-11-12T12:19:21.998Z,23.10
2022-11-12T12:21:04.520Z,31.00
2022-11-12T12:22:38.287Z,26.90
2022-11-12T12:24:04.677Z,31.00
2022-11-12T12:25:31.497Z,27.70
2022-11-12T12:26:55.407Z,27.20
2022-11-12T12:28:36.337Z,28.20
2022-11-12T12:30:03.441Z,33.30
2022-11-12T12:31:31.067Z,28.10
2022-11-12T12:33:01.125Z,34.00
2022-11-12T12:34:31.358Z,28.10
2022-11-12T12:36:02.019Z,30.50
2022-11-12T12:37:47.480Z,25.10
2022-11-12T12:39:20.237Z,27.70
2022-11-12T12:40:49.706Z,30.70
2022-11-12T12:42:20.415Z,26.40
2022-11-12T12:43:50.484Z,18.60
2022-11-12T12:45:21.553Z,29.20
2022-11-12T12:46:48.279Z,25.60
2022-11-12T12:48:15.166Z,25.90
2022-11-12T12:49:37.262Z,25.20
2022-11-12T12:50:58.030Z,26.70
2022-11-12T12:52:18.271Z,28.50
2022-11-12T12:53:38.967Z,25.50
2022-11-12T12:54:59.425Z,23.60
2022-11-12T12:56:27.111Z,29.30
2022-11-12T12:57:48.348Z,27.60
2022-11-12T12:59:21.759Z,27.90
2022-11-12T13:00:51.567Z,25.40
2022-11-12T13:02:21.729Z,28.50
2022-11-12T13:03:54.825Z,25.60
2022-11-12T13:05:28.409Z,26.30
2022-11-12T13:06:55.028Z,27.10
2022-11-12T13:08:26.567Z,20.50
2022-11-12T13:09:57.381Z,30.10
2022-11-12T13:11:42.812Z,19.00
2022-11-12T13:13:07.316Z,22.60
2022-11-12T13:14:37.721Z,23.30
2022-11-12T13:15:59.919Z,21.30
2022-11-12T13:17:43.720Z,26.50
2022-11-12T13:19:04.745Z,29.10
2022-11-12T13:20:35.364Z,28.70
2022-11-12T13:22:19.684Z,28.50
2022-11-12T13:25:14.676Z,28.70
2022-11-12T13:26:47.641Z,30.60
2022-11-12T13:28:09.607Z,17.30
2022-11-12T13:29:34.091Z,28.10
2022-11-12T13:30:57.190Z,22.70
2022-11-12T13:32:30.177Z,35.20
2022-11-12T13:33:50.744Z,30.10
2022-11-12T13:35:18.041Z,25.60
2022-11-12T13:36:39.774Z,28.00
2022-11-12T13:38:14.034Z,29.50
2022-11-12T13:39:35.375Z,28.10
2022-11-12T13:40:59.475Z,28.90
2022-11-12T13:42:20.168Z,30.90
2022-11-12T13:43:46.585Z,25.90
2022-11-12T13:45:10.074Z,24.90
2022-11-12T13:46:32.808Z,29.20
2022-11-12T13:47:54.921Z,24.50
2022-11-12T13:49:16.974Z,19.50
2022-11-12T13:50:40.962Z,30.40
2022-11-12T13:52:03.715Z,26.50
2022-11-12T13:53:27.323Z,31.00
2022-11-12T13:54:52.126Z,29.50
2022-11-12T13:56:25.446Z,24.50
2022-11-12T13:57:50.548Z,28.40
2022-11-12T13:59:15.752Z,30.70
2022-11-12T14:00:37.634Z,30.80
2022-11-12T14:02:01.861Z,32.00
2022-11-12T14:03:26.281Z,26.70
2022-11-12T14:04:46.872Z,27.10
2022-11-12T14:06:20.765Z,20.70
2022-11-12T14:08:03.129Z,28.80
2022-11-12T14:09:27.420Z,25.50
2022-11-12T14:11:03.706Z,29.40
2022-11-12T14:12:38.223Z,27.30
2022-11-12T14:14:19.293Z,30.10
2022-11-12T14:15:52.113Z,27.30
2022-11-12T14:17:25.317Z,22.90
2022-11-12T14:19:13.629Z,21.60
2022-11-12T14:20:39.342Z,26.50
2022-11-12T14:22:03.653Z,21.80
2022-11-12T14:23:26.028Z,23.30
2022-11-12T14:24:50.593Z,28.50
2022-11-12T14:26:12.642Z,21.60
2022-11-12T14:27:35.289Z,37.20
2022-11-12T14:28:58.474Z,27.10
2022-11-12T14:30:24.969Z,29.60
2022-11-12T14:31:46.171Z,18.80
2022-11-12T14:33:10.955Z,22.50
2022-11-12T14:34:33.459Z,22.00
2022-11-12T18:05:59.195Z,21.60
2022-11-12T18:07:20.874Z,15.10
2022-11-12T18:08:43.984Z,21.20
2022-11-12T18:10:05.707Z,20.20
2022-11-12T18:11:28.624Z,16.90
2022-11-12T18:12:52.298Z,21.00
2022-11-12T18:14:12.716Z,17.70
2022-11-12T18:15:33.089Z,18.20
2022-11-12T18:16:53.832Z,14.80
2022-11-12T18:18:14.413Z,17.00
2022-11-12T18:19:37.460Z,16.90
2022-11-12T18:20:58.108Z,15.70
2022-11-12T18:22:18.814Z,15.90
2022-11-12T18:23:41.237Z,14.10
2022-11-12T18:25:01.991Z,13.80
2022-11-12T18:26:22.944Z,14.80
2022-11-12T18:27:43.551Z,15.00
2022-11-12T18:29:04.383Z,16.90
2022-11-12T18:30:25.587Z,15.40
2022-11-12T18:31:49.628Z,16.30
2022-11-12T18:33:11.373Z,17.10
2022-11-12T18:34:32.742Z,20.00
2022-11-12T18:36:03.677Z,13.40
2022-11-12T18:37:26.904Z,10.40
2022-11-12T18:38:50.668Z,13.30
2022-11-12T18:40:13.462Z,19.40
2022-11-12T18:41:33.780Z,14.10
2022-11-12T18:42:55.028Z,14.90
2022-11-12T18:44:16.841Z,16.00
2022-11-12T18:45:37.084Z,13.20
2022-11-12T18:46:57.513Z,14.50
2022-11-12T18:48:18.498Z,15.00
2022-11-12T18:49:39.084Z,13.10
2022-11-12T18:51:06.802Z,12.80
2022-11-12T18:52:27.953Z,14.50
2022-11-12T18:53:49.432Z,14.10
2022-11-12T18:55:12.383Z,13.90
2022-11-12T18:56:32.573Z,15.30
2022-11-12T18:57:53.744Z,12.70
2022-11-12T18:59:18.716Z,15.10
2022-11-12T19:00:39.350Z,15.80
2022-11-12T19:01:59.897Z,17.50
2022-11-12T19:03:20.899Z,13.10
2022-11-12T19:04:45.631Z,11.40
2022-11-12T19:06:14.951Z,14.90
2022-11-12T19:07:33.434Z,15.00
2022-11-12T19:09:00.422Z,8.70
2022-11-12T19:10:26.591Z,10.50
2022-11-12T19:11:46.884Z,9.10
2022-11-12T19:13:08.435Z,16.10
2022-11-12T19:14:29.993Z,12.80
2022-11-12T19:15:50.693Z,13.80
2022-11-12T19:17:12.291Z,11.80
2022-11-12T19:18:33.697Z,12.20
2022-11-12T19:19:54.210Z,12.80
2022-11-12T19:21:23.242Z,10.60
2022-11-12T19:22:44.423Z,12.60
2022-11-12T19:24:05.944Z,13.40
2022-11-12T19:25:27.144Z,11.80
2022-11-12T19:26:47.470Z,8.80
2022-11-12T19:28:07.770Z,13.20
2022-11-12T19:29:28.687Z,10.10
2022-11-12T19:30:49.813Z,9.10
2022-11-12T19:32:11.296Z,12.00
2022-11-12T19:33:32.858Z,12.50
2022-11-12T19:34:53.249Z,13.40
2022-11-12T19:36:19.650Z,12.10
2022-11-12T19:37:39.696Z,6.10
2022-11-12T19:39:00.319Z,8.60
2022-11-12T19:40:20.793Z,9.90
2022-11-12T19:41:41.855Z,9.80
2022-11-12T19:43:02.377Z,11.80
2022-11-12T19:44:22.820Z,13.10
2022-11-12T19:45:43.336Z,10.40
2022-11-12T19:47:04.802Z,10.50
2022-11-12T19:48:26.734Z,12.50
2022-11-12T19:49:47.731Z,14.40
2022-11-12T19:51:11.455Z,11.80
2022-11-12T19:52:31.696Z,10.90
2022-11-12T19:53:52.381Z,10.90
2022-11-12T19:55:14.263Z,9.20
2022-11-12T19:56:34.808Z,8.90
2022-11-12T19:57:56.346Z,11.30
2022-11-12T19:59:18.271Z,12.80
2022-11-12T20:00:39.462Z,14.90
2022-11-12T20:02:00.807Z,10.70
2022-11-12T20:03:21.283Z,12.80
2022-11-12T20:04:42.254Z,11.40
2022-11-12T20:06:18.062Z,9.50
2022-11-12T20:07:41.139Z,11.50
2022-11-12T20:09:05.000Z,12.80
2022-11-12T20:10:28.016Z,12.10
2022-11-12T20:11:50.115Z,5.00
2022-11-12T20:13:11.131Z,9.70
2022-11-12T20:14:33.167Z,8.00
2022-11-12T20:15:57.425Z,13.30
2022-11-12T20:17:18.906Z,10.80
2022-11-12T20:18:40.548Z,9.20
2022-11-12T20:20:22.532Z,8.20
2022-11-12T20:21:45.549Z,9.30
2022-11-12T20:23:06.169Z,9.50
2022-11-12T20:24:27.087Z,11.70
2022-11-12T20:25:47.648Z,9.50
2022-11-12T20:27:10.393Z,10.10
2022-11-12T20:28:34.375Z,11.10
2022-11-12T20:29:54.696Z,9.90
2022-11-12T20:31:20.036Z,9.50
2022-11-12T20:32:40.980Z,9.40
2022-11-12T20:34:01.674Z,14.50
2022-11-12T20:35:23.631Z,9.40
2022-11-12T20:36:44.958Z,9.60
2022-11-12T20:38:05.384Z,7.60
2022-11-12T20:39:26.186Z,9.00
2022-11-12T20:40:46.530Z,5.00
2022-11-12T20:42:07.490Z,9.70
2022-11-12T20:43:29.343Z,9.50
2022-11-12T20:44:49.715Z,7.50
2022-11-12T20:46:14.140Z,7.50
2022-11-12T20:47:38.325Z,4.70
2022-11-12T20:49:01.000Z,7.80
2022-11-12T20:50:22.877Z,10.20
2022-11-12T20:51:44.353Z,10.40
2022-11-12T20:53:05.126Z,10.70
2022-11-12T20:54:25.691Z,6.60
2022-11-12T20:55:46.806Z,10.30
2022-11-12T20:57:07.534Z,9.60
2022-11-12T20:58:29.571Z,6.60
2022-11-12T20:59:55.802Z,10.40
2022-11-12T21:01:19.110Z,7.00
2022-11-12T21:02:41.583Z,11.00
2022-11-12T21:04:03.353Z,7.40
2022-11-12T21:05:24.361Z,5.30
2022-11-12T21:06:45.265Z,6.60
2022-11-12T21:08:06.280Z,9.30
2022-11-12T21:09:27.127Z,9.60
2022-11-12T21:10:49.085Z,10.60
2022-11-12T21:12:09.796Z,9.10
2022-11-12T21:13:30.482Z,9.50
2022-11-12T21:14:52.941Z,8.70
2022-11-12T21:16:15.077Z,6.40
2022-11-12T21:17:35.630Z,8.20
2022-11-12T21:19:02.030Z,7.30
2022-11-12T21:20:25.648Z,5.00
2022-11-12T21:21:46.227Z,3.10
2022-11-12T21:23:07.122Z,7.80
2022-11-12T21:24:28.664Z,4.60
2022-11-12T21:25:49.919Z,8.40
2022-11-12T21:27:10.366Z,6.10
2022-11-12T21:28:36.448Z,10.80
2022-11-12T21:30:04.011Z,9.40
2022-11-12T21:31:28.382Z,6.50
2022-11-12T21:32:49.231Z,7.20
2022-11-12T21:34:10.093Z,6.20
2022-11-12T21:35:30.267Z,3.30
2022-11-12T21:36:51.315Z,7.20
2022-11-12T21:38:11.663Z,8.20
2022-11-12T21:39:33.210Z,7.90
2022-11-12T21:41:11.509Z,8.20
2022-11-12T21:42:31.740Z,9.10
2022-11-12T21:43:52.811Z,7.60
2022-11-12T21:45:13.361Z,8.10
2022-11-12T21:46:33.865Z,4.20
2022-11-12T21:47:54.851Z,6.00
2022-11-12T21:49:16.006Z,3.30
2022-11-12T21:50:38.120Z,8.30
2022-11-12T21:51:58.735Z,4.90
2022-11-12T21:53:20.511Z,7.60
2022-11-12T21:54:41.180Z,4.40
2022-11-12T21:56:08.224Z,5.90
2022-11-12T21:57:29.091Z,8.00
2022-11-12T21:58:49.616Z,4.70
2022-11-12T22:00:40.285Z,6.50
2022-11-12T22:01:35.478Z,5.00
2022-11-12T22:02:57.127Z,4.60
2022-11-12T22:04:18.556Z,6.70
2022-11-12T22:05:39.198Z,6.20
2022-11-12T22:06:59.890Z,5.20
2022-11-12T22:08:20.778Z,4.90
2022-11-12T22:09:40.817Z,4.50
2022-11-12T22:11:06.651Z,4.80
2022-11-12T22:12:27.868Z,6.80
2022-11-12T22:13:48.490Z,5.90
2022-11-12T22:15:09.535Z,4.90
2022-11-12T22:16:29.998Z,6.20
2022-11-12T22:17:50.465Z,6.20
2022-11-12T22:19:11.369Z,6.10
2022-11-12T22:20:32.499Z,6.70
2022-11-12T22:21:52.969Z,5.20
2022-11-12T22:23:13.629Z,5.20
2022-11-12T22:24:33.867Z,5.60
2022-11-12T22:25:58.340Z,6.00
2022-11-12T22:27:18.636Z,3.50
2022-11-12T22:28:39.889Z,5.00
2022-11-12T22:30:01.367Z,7.40
2022-11-12T22:31:27.896Z,8.60
2022-11-12T22:32:48.374Z,5.70
2022-11-12T22:34:08.878Z,6.10
2022-11-12T22:35:29.408Z,1.90
2022-11-12T22:36:49.805Z,6.00
2022-11-12T22:38:11.094Z,6.80
2022-11-12T22:39:31.299Z,7.30
2022-11-12T22:40:52.023Z,3.60
2022-11-12T22:42:13.081Z,9.80
2022-11-12T22:43:33.811Z,7.40
2022-11-12T22:44:54.088Z,9.50
2022-11-12T22:46:17.801Z,7.60
2022-11-12T22:47:38.343Z,5.80
2022-11-12T22:48:59.622Z,9.20
2022-11-12T22:50:20.251Z,5.60
2022-11-12T22:51:40.511Z,5.90
2022-11-12T22:53:00.841Z,5.40
2022-11-12T22:54:20.938Z,3.30
2022-11-12T22:55:41.474Z,4.50
2022-11-12T22:57:02.269Z,2.00
2022-11-12T22:58:22.739Z,4.60
2022-11-12T22:59:43.404Z,4.60
2022-11-12T23:01:05.942Z,8.20
2022-11-12T23:02:27.325Z,4.80
2022-11-12T23:03:50.940Z,4.80
2022-11-12T23:05:12.565Z,2.70
2022-11-12T23:06:34.460Z,1.60
2022-11-12T23:07:55.610Z,2.20
2022-11-12T23:09:17.400Z,4.60
2022-11-12T23:10:42.952Z,4.20
2022-11-12T23:12:00.455Z,3.00
2022-11-12T23:13:23.267Z,1.90
2022-11-12T23:14:44.056Z,3.00
2022-11-12T23:16:11.470Z,1.40
2022-11-12T23:17:31.800Z,0.90
2022-11-12T23:18:52.840Z,2.20
2022-11-12T23:20:13.532Z,2.40
2022-11-12T23:21:34.000Z,0.80
2022-11-12T23:22:55.166Z,0.50
2022-11-12T23:24:15.928Z,1.00
2022-11-12T23:25:36.472Z,1.50
2022-11-12T23:26:56.989Z,2.50
2022-11-12T23:28:17.455Z,2.40
2022-11-12T23:29:38.392Z,1.90
2022-11-12T23:30:59.495Z,1.00
2022-11-12T23:32:20.125Z,1.30
2022-11-12T23:33:52.627Z,1.90
2022-11-12T23:35:13.033Z,3.30
2022-11-12T23:36:33.961Z,0.90
2022-11-12T23:37:54.819Z,1.40
2022-11-12T23:39:15.775Z,1.00
2022-11-12T23:40:37.605Z,3.10
2022-11-12T23:41:57.961Z,3.20
2022-11-12T23:43:18.685Z,1.40
2022-11-12T23:44:39.541Z,2.70
2022-11-12T23:46:00.311Z,1.80
2022-11-12T23:47:22.159Z,1.50
2022-11-12T23:48:43.123Z,2.10
2022-11-12T23:50:04.252Z,2.00
2022-11-12T23:51:24.899Z,3.70
2022-11-12T23:52:45.951Z,2.10
2022-11-12T23:54:06.418Z,2.50
2022-11-12T23:55:29.432Z,4.20
2022-11-12T23:56:49.667Z,2.50
2022-11-12T23:58:11.791Z,2.80
2022-11-12T23:59:32.248Z,3.60
